sensor_id;sensor_type;location;lat;lon;timestamp;pressure;altitude;pressure_sealevel;temperature;humidity
83625;BME280;73589;41.158;-73.238;2024-01-30T00:02:02;101541.76;;;22.10;41.14
83625;BME280;73589;41.158;-73.238;2024-01-30T00:04:33;101550.89;;;22.13;41.10
83625;BME280;73589;41.158;-73.238;2024-01-30T00:07:03;101558.56;;;22.00;41.30
83625;BME280;73589;41.158;-73.238;2024-01-30T00:09:33;101562.96;;;22.03;41.13
83625;BME280;73589;41.158;-73.238;2024-01-30T00:12:04;101570.83;;;21.96;41.33
83625;BME280;73589;41.158;-73.238;2024-01-30T00:14:34;101582.14;;;22.04;41.30
83625;BME280;73589;41.158;-73.238;2024-01-30T00:17:05;101584.24;;;22.04;41.25
83625;BME280;73589;41.158;-73.238;2024-01-30T00:19:36;101585.65;;;22.07;41.26
83625;BME280;73589;41.158;-73.238;2024-01-30T00:22:07;101589.80;;;22.04;41.29
83625;BME280;73589;41.158;-73.238;2024-01-30T00:24:37;101594.77;;;22.06;41.31
83625;BME280;73589;41.158;-73.238;2024-01-30T00:27:08;101600.84;;;22.07;41.29
83625;BME280;73589;41.158;-73.238;2024-01-30T00:29:38;101600.54;;;22.06;41.34
83625;BME280;73589;41.158;-73.238;2024-01-30T00:32:10;101609.20;;;21.99;41.43
83625;BME280;73589;41.158;-73.238;2024-01-30T00:34:41;101614.79;;;22.04;41.54
83625;BME280;73589;41.158;-73.238;2024-01-30T00:37:11;101617.11;;;22.04;41.56
83625;BME280;73589;41.158;-73.238;2024-01-30T00:39:42;101622.01;;;22.09;41.51
83625;BME280;73589;41.158;-73.238;2024-01-30T00:42:12;101622.58;;;22.05;41.57
83625;BME280;73589;41.158;-73.238;2024-01-30T00:44:43;101625.75;;;22.02;41.63
83625;BME280;73589;41.158;-73.238;2024-01-30T00:47:14;101629.50;;;22.06;41.62
83625;BME280;73589;41.158;-73.238;2024-01-30T00:49:44;101631.88;;;22.06;41.60
83625;BME280;73589;41.158;-73.238;2024-01-30T00:52:15;101636.86;;;22.03;41.75
83625;BME280;73589;41.158;-73.238;2024-01-30T00:54:45;101638.77;;;22.02;41.66
83625;BME280;73589;41.158;-73.238;2024-01-30T00:57:16;101646.50;;;22.06;41.85
83625;BME280;73589;41.158;-73.238;2024-01-30T00:59:46;101650.04;;;22.06;42.31
83625;BME280;73589;41.158;-73.238;2024-01-30T01:02:17;101649.49;;;22.20;42.04
83625;BME280;73589;41.158;-73.238;2024-01-30T01:04:48;101653.93;;;22.30;42.15
83625;BME280;73589;41.158;-73.238;2024-01-30T01:07:18;101656.16;;;22.38;42.42
83625;BME280;73589;41.158;-73.238;2024-01-30T01:09:49;101661.30;;;22.37;42.54
83625;BME280;73589;41.158;-73.238;2024-01-30T01:12:20;101663.65;;;22.44;42.40
83625;BME280;73589;41.158;-73.238;2024-01-30T01:14:50;101665.80;;;22.19;42.58
83625;BME280;73589;41.158;-73.238;2024-01-30T01:17:21;101669.22;;;22.20;42.17
83625;BME280;73589;41.158;-73.238;2024-01-30T01:19:50;101681.47;;;22.35;42.16
83625;BME280;73589;41.158;-73.238;2024-01-30T01:22:21;101686.30;;;22.38;41.99
83625;BME280;73589;41.158;-73.238;2024-01-30T01:24:52;101692.40;;;22.36;41.98
83625;BME280;73589;41.158;-73.238;2024-01-30T01:27:22;101697.02;;;22.34;41.97
83625;BME280;73589;41.158;-73.238;2024-01-30T01:29:53;101698.30;;;22.25;42.05
83625;BME280;73589;41.158;-73.238;2024-01-30T01:32:24;101702.73;;;22.43;43.12
83625;BME280;73589;41.158;-73.238;2024-01-30T01:34:54;101711.03;;;22.57;44.84
83625;BME280;73589;41.158;-73.238;2024-01-30T01:37:25;101702.82;;;22.70;44.93
83625;BME280;73589;41.158;-73.238;2024-01-30T01:39:55;101701.97;;;22.96;44.15
83625;BME280;73589;41.158;-73.238;2024-01-30T01:42:26;101708.36;;;23.19;43.48
83625;BME280;73589;41.158;-73.238;2024-01-30T01:44:56;101716.04;;;23.22;43.64
83625;BME280;73589;41.158;-73.238;2024-01-30T01:47:27;101714.50;;;23.27;43.55
83625;BME280;73589;41.158;-73.238;2024-01-30T01:49:58;101720.90;;;23.26;43.30
83625;BME280;73589;41.158;-73.238;2024-01-30T01:52:29;101727.46;;;23.28;43.75
83625;BME280;73589;41.158;-73.238;2024-01-30T01:54:59;101725.44;;;23.26;43.75
83625;BME280;73589;41.158;-73.238;2024-01-30T01:57:30;101727.98;;;23.51;43.39
83625;BME280;73589;41.158;-73.238;2024-01-30T02:00:01;101733.29;;;23.52;42.93
83625;BME280;73589;41.158;-73.238;2024-01-30T02:02:31;101734.10;;;23.67;42.24
83625;BME280;73589;41.158;-73.238;2024-01-30T02:05:07;101742.44;;;23.77;41.69
83625;BME280;73589;41.158;-73.238;2024-01-30T02:07:32;101746.75;;;23.83;41.61
83625;BME280;73589;41.158;-73.238;2024-01-30T02:10:02;101747.41;;;23.83;41.66
83625;BME280;73589;41.158;-73.238;2024-01-30T02:12:32;101750.69;;;23.88;41.86
83625;BME280;73589;41.158;-73.238;2024-01-30T02:15:04;101757.37;;;23.83;42.12
83625;BME280;73589;41.158;-73.238;2024-01-30T02:17:33;101755.77;;;23.83;42.15
83625;BME280;73589;41.158;-73.238;2024-01-30T02:20:05;101760.30;;;23.80;42.18
83625;BME280;73589;41.158;-73.238;2024-01-30T02:22:35;101757.70;;;23.98;42.05
83625;BME280;73589;41.158;-73.238;2024-01-30T02:25:05;101764.31;;;23.97;41.07
83625;BME280;73589;41.158;-73.238;2024-01-30T02:27:36;101775.93;;;23.79;41.81
83625;BME280;73589;41.158;-73.238;2024-01-30T02:30:07;101777.96;;;23.79;42.02
83625;BME280;73589;41.158;-73.238;2024-01-30T02:32:37;101781.79;;;23.84;41.93
83625;BME280;73589;41.158;-73.238;2024-01-30T02:35:08;101780.26;;;23.75;42.01
83625;BME280;73589;41.158;-73.238;2024-01-30T02:37:38;101783.32;;;23.63;42.44
83625;BME280;73589;41.158;-73.238;2024-01-30T02:40:09;101785.81;;;23.40;42.99
83625;BME280;73589;41.158;-73.238;2024-01-30T02:42:40;101786.42;;;23.27;42.51
83625;BME280;73589;41.158;-73.238;2024-01-30T02:45:11;101788.80;;;23.13;42.34
83625;BME280;73589;41.158;-73.238;2024-01-30T02:47:41;101796.92;;;23.24;42.49
83625;BME280;73589;41.158;-73.238;2024-01-30T02:50:11;101798.54;;;23.21;42.80
83625;BME280;73589;41.158;-73.238;2024-01-30T02:52:42;101797.20;;;23.11;43.05
83625;BME280;73589;41.158;-73.238;2024-01-30T02:55:13;101795.61;;;23.12;43.78
83625;BME280;73589;41.158;-73.238;2024-01-30T02:57:43;101792.17;;;22.84;43.53
83625;BME280;73589;41.158;-73.238;2024-01-30T03:00:14;101797.23;;;22.59;43.81
83625;BME280;73589;41.158;-73.238;2024-01-30T03:02:44;101805.44;;;22.89;43.53
83625;BME280;73589;41.158;-73.238;2024-01-30T03:05:15;101799.79;;;22.97;43.61
83625;BME280;73589;41.158;-73.238;2024-01-30T03:07:45;101798.93;;;22.91;43.73
83625;BME280;73589;41.158;-73.238;2024-01-30T03:10:16;101795.83;;;22.91;43.89
83625;BME280;73589;41.158;-73.238;2024-01-30T03:12:46;101788.78;;;22.88;43.95
83625;BME280;73589;41.158;-73.238;2024-01-30T03:15:16;101789.61;;;22.54;44.16
83625;BME280;73589;41.158;-73.238;2024-01-30T03:17:47;101792.84;;;22.49;44.11
83625;BME280;73589;41.158;-73.238;2024-01-30T03:20:17;101792.64;;;22.74;43.88
83625;BME280;73589;41.158;-73.238;2024-01-30T03:22:49;101798.80;;;22.82;43.85
83625;BME280;73589;41.158;-73.238;2024-01-30T03:25:19;101802.07;;;22.85;43.86
83625;BME280;73589;41.158;-73.238;2024-01-30T03:27:49;101803.77;;;22.88;43.99
83625;BME280;73589;41.158;-73.238;2024-01-30T03:30:21;101798.94;;;22.66;44.04
83625;BME280;73589;41.158;-73.238;2024-01-30T03:32:50;101805.60;;;22.25;44.52
83625;BME280;73589;41.158;-73.238;2024-01-30T03:35:21;101812.45;;;22.56;44.01
83625;BME280;73589;41.158;-73.238;2024-01-30T03:37:52;101814.48;;;22.69;44.00
83625;BME280;73589;41.158;-73.238;2024-01-30T03:40:22;101812.38;;;22.74;43.88
83625;BME280;73589;41.158;-73.238;2024-01-30T03:42:53;101817.86;;;22.70;43.89
83625;BME280;73589;41.158;-73.238;2024-01-30T03:45:23;101811.46;;;22.72;44.03
83625;BME280;73589;41.158;-73.238;2024-01-30T03:47:54;101813.38;;;21.97;45.09
83625;BME280;73589;41.158;-73.238;2024-01-30T03:50:25;101822.42;;;22.38;44.24
83625;BME280;73589;41.158;-73.238;2024-01-30T03:52:55;101830.19;;;22.57;44.09
83625;BME280;73589;41.158;-73.238;2024-01-30T03:55:26;101832.18;;;22.62;43.91
83625;BME280;73589;41.158;-73.238;2024-01-30T03:57:56;101834.22;;;22.65;43.88
83625;BME280;73589;41.158;-73.238;2024-01-30T04:00:27;101838.15;;;22.61;43.90
83625;BME280;73589;41.158;-73.238;2024-01-30T04:02:57;101845.16;;;22.23;44.33
83625;BME280;73589;41.158;-73.238;2024-01-30T04:05:28;101854.62;;;22.35;43.95
83625;BME280;73589;41.158;-73.238;2024-01-30T04:07:59;101859.23;;;22.47;43.73
83625;BME280;73589;41.158;-73.238;2024-01-30T04:10:29;101862.49;;;22.52;43.71
83625;BME280;73589;41.158;-73.238;2024-01-30T04:13:00;101859.11;;;22.49;43.71
83625;BME280;73589;41.158;-73.238;2024-01-30T04:15:31;101853.32;;;22.46;43.84
83625;BME280;73589;41.158;-73.238;2024-01-30T04:18:01;101856.87;;;22.08;44.26
83625;BME280;73589;41.158;-73.238;2024-01-30T04:20:32;101864.05;;;22.28;43.89
83625;BME280;73589;41.158;-73.238;2024-01-30T04:23:03;101867.03;;;22.40;43.70
83625;BME280;73589;41.158;-73.238;2024-01-30T04:25:33;101870.19;;;22.44;43.65
83625;BME280;73589;41.158;-73.238;2024-01-30T04:28:04;101869.22;;;22.44;43.68
83625;BME280;73589;41.158;-73.238;2024-01-30T04:30:34;101867.42;;;22.06;44.29
83625;BME280;73589;41.158;-73.238;2024-01-30T04:33:05;101866.43;;;22.25;43.78
83625;BME280;73589;41.158;-73.238;2024-01-30T04:35:36;101867.96;;;22.40;43.44
83625;BME280;73589;41.158;-73.238;2024-01-30T04:38:06;101870.99;;;22.38;43.78
83625;BME280;73589;41.158;-73.238;2024-01-30T04:40:36;101876.73;;;22.41;43.86
83625;BME280;73589;41.158;-73.238;2024-01-30T04:43:07;101872.95;;;22.37;44.09
83625;BME280;73589;41.158;-73.238;2024-01-30T04:45:39;101866.97;;;22.04;44.47
83625;BME280;73589;41.158;-73.238;2024-01-30T04:48:09;101873.35;;;22.10;44.20
83625;BME280;73589;41.158;-73.238;2024-01-30T04:50:40;101876.52;;;22.31;43.97
83625;BME280;73589;41.158;-73.238;2024-01-30T04:53:11;101883.90;;;22.33;44.11
83625;BME280;73589;41.158;-73.238;2024-01-30T04:55:40;101882.90;;;22.37;44.14
83625;BME280;73589;41.158;-73.238;2024-01-30T04:58:11;101880.24;;;22.32;44.40
83625;BME280;73589;41.158;-73.238;2024-01-30T05:00:43;101878.08;;;21.91;44.86
83625;BME280;73589;41.158;-73.238;2024-01-30T05:03:12;101876.68;;;22.05;44.36
83625;BME280;73589;41.158;-73.238;2024-01-30T05:05:43;101877.88;;;22.21;43.95
83625;BME280;73589;41.158;-73.238;2024-01-30T05:08:13;101883.65;;;22.24;44.00
83625;BME280;73589;41.158;-73.238;2024-01-30T05:10:44;101882.73;;;22.33;44.15
83625;BME280;73589;41.158;-73.238;2024-01-30T05:13:14;101884.40;;;22.32;44.31
83625;BME280;73589;41.158;-73.238;2024-01-30T05:15:45;101885.13;;;22.35;44.39
83625;BME280;73589;41.158;-73.238;2024-01-30T05:18:15;101887.20;;;22.05;44.89
83625;BME280;73589;41.158;-73.238;2024-01-30T05:20:46;101888.61;;;21.82;44.96
83625;BME280;73589;41.158;-73.238;2024-01-30T05:23:16;101892.02;;;22.29;44.04
83625;BME280;73589;41.158;-73.238;2024-01-30T05:25:47;101891.80;;;22.29;44.37
83625;BME280;73589;41.158;-73.238;2024-01-30T05:28:17;101893.77;;;22.33;44.53
83625;BME280;73589;41.158;-73.238;2024-01-30T05:30:48;101899.38;;;22.37;44.67
83625;BME280;73589;41.158;-73.238;2024-01-30T05:33:17;101904.59;;;22.38;44.90
83625;BME280;73589;41.158;-73.238;2024-01-30T05:35:48;101902.79;;;22.37;44.91
83625;BME280;73589;41.158;-73.238;2024-01-30T05:38:19;101904.07;;;21.94;45.43
83625;BME280;73589;41.158;-73.238;2024-01-30T05:40:50;101905.40;;;21.82;45.34
83625;BME280;73589;41.158;-73.238;2024-01-30T05:43:21;101913.77;;;22.35;44.46
83625;BME280;73589;41.158;-73.238;2024-01-30T05:45:51;101913.51;;;22.44;44.82
83625;BME280;73589;41.158;-73.238;2024-01-30T05:48:22;101918.04;;;22.52;45.07
83625;BME280;73589;41.158;-73.238;2024-01-30T05:50:52;101919.44;;;22.51;45.03
83625;BME280;73589;41.158;-73.238;2024-01-30T05:53:23;101921.68;;;22.57;45.03
83625;BME280;73589;41.158;-73.238;2024-01-30T05:55:52;101917.39;;;22.29;45.31
83625;BME280;73589;41.158;-73.238;2024-01-30T05:58:23;101914.67;;;21.84;45.60
83625;BME280;73589;41.158;-73.238;2024-01-30T06:00:54;101913.99;;;22.11;44.82
83625;BME280;73589;41.158;-73.238;2024-01-30T06:03:23;101919.91;;;22.44;44.16
83625;BME280;73589;41.158;-73.238;2024-01-30T06:05:54;101918.12;;;22.46;44.32
83625;BME280;73589;41.158;-73.238;2024-01-30T06:08:24;101920.12;;;22.55;44.24
83625;BME280;73589;41.158;-73.238;2024-01-30T06:10:55;101918.75;;;22.63;44.11
83625;BME280;73589;41.158;-73.238;2024-01-30T06:13:26;101917.95;;;22.63;44.15
83625;BME280;73589;41.158;-73.238;2024-01-30T06:15:56;101914.16;;;22.39;44.56
83625;BME280;73589;41.158;-73.238;2024-01-30T06:18:26;101917.77;;;22.03;44.95
83625;BME280;73589;41.158;-73.238;2024-01-30T06:20:57;101919.52;;;22.25;44.37
83625;BME280;73589;41.158;-73.238;2024-01-30T06:23:26;101918.71;;;22.38;44.13
83625;BME280;73589;41.158;-73.238;2024-01-30T06:25:56;101925.13;;;22.41;44.22
83625;BME280;73589;41.158;-73.238;2024-01-30T06:28:27;101927.54;;;22.40;44.22
83625;BME280;73589;41.158;-73.238;2024-01-30T06:30:57;101927.32;;;22.41;44.40
83625;BME280;73589;41.158;-73.238;2024-01-30T06:33:29;101927.48;;;22.40;44.41
83625;BME280;73589;41.158;-73.238;2024-01-30T06:35:59;101923.29;;;22.27;44.59
83625;BME280;73589;41.158;-73.238;2024-01-30T06:38:30;101924.25;;;21.83;44.79
83625;BME280;73589;41.158;-73.238;2024-01-30T06:41:00;101931.55;;;22.04;44.32
83625;BME280;73589;41.158;-73.238;2024-01-30T06:43:31;101936.16;;;22.18;43.68
83625;BME280;73589;41.158;-73.238;2024-01-30T06:46:01;101944.37;;;22.30;43.33
83625;BME280;73589;41.158;-73.238;2024-01-30T06:48:32;101948.81;;;22.35;43.55
83625;BME280;73589;41.158;-73.238;2024-01-30T06:51:02;101946.30;;;22.33;43.69
83625;BME280;73589;41.158;-73.238;2024-01-30T06:53:33;101950.66;;;22.36;43.84
83625;BME280;73589;41.158;-73.238;2024-01-30T06:56:04;101953.32;;;22.36;43.98
83625;BME280;73589;41.158;-73.238;2024-01-30T06:58:33;101955.89;;;21.72;44.88
83625;BME280;73589;41.158;-73.238;2024-01-30T07:01:04;101959.76;;;22.07;44.17
83625;BME280;73589;41.158;-73.238;2024-01-30T07:03:34;101963.03;;;22.34;43.67
83625;BME280;73589;41.158;-73.238;2024-01-30T07:06:05;101966.50;;;22.28;43.98
83625;BME280;73589;41.158;-73.238;2024-01-30T07:08:35;101963.71;;;22.26;44.13
83625;BME280;73589;41.158;-73.238;2024-01-30T07:11:06;101965.39;;;22.33;44.18
83625;BME280;73589;41.158;-73.238;2024-01-30T07:13:36;101958.90;;;22.15;44.38
83625;BME280;73589;41.158;-73.238;2024-01-30T07:16:07;101959.64;;;21.78;44.79
83625;BME280;73589;41.158;-73.238;2024-01-30T07:18:38;101964.15;;;21.98;44.40
83625;BME280;73589;41.158;-73.238;2024-01-30T07:21:08;101964.40;;;22.26;44.13
83625;BME280;73589;41.158;-73.238;2024-01-30T07:23:39;101960.72;;;22.34;44.03
83625;BME280;73589;41.158;-73.238;2024-01-30T07:26:09;101961.68;;;22.30;44.11
83625;BME280;73589;41.158;-73.238;2024-01-30T07:28:40;101958.16;;;22.29;44.23
83625;BME280;73589;41.158;-73.238;2024-01-30T07:31:09;101959.47;;;22.26;44.31
83625;BME280;73589;41.158;-73.238;2024-01-30T07:33:40;101956.54;;;22.08;44.56
83625;BME280;73589;41.158;-73.238;2024-01-30T07:36:10;101949.31;;;21.82;44.68
83625;BME280;73589;41.158;-73.238;2024-01-30T07:38:40;101948.01;;;21.77;44.43
83625;BME280;73589;41.158;-73.238;2024-01-30T07:41:10;101950.72;;;22.14;43.83
83625;BME280;73589;41.158;-73.238;2024-01-30T07:43:40;101955.74;;;22.16;43.91
83625;BME280;73589;41.158;-73.238;2024-01-30T07:46:12;101953.59;;;22.19;43.90
83625;BME280;73589;41.158;-73.238;2024-01-30T07:48:42;101953.66;;;22.18;43.97
83625;BME280;73589;41.158;-73.238;2024-01-30T07:51:13;101955.99;;;22.20;44.08
83625;BME280;73589;41.158;-73.238;2024-01-30T07:53:43;101951.05;;;21.67;44.93
83625;BME280;73589;41.158;-73.238;2024-01-30T07:56:13;101953.27;;;21.68;44.73
83625;BME280;73589;41.158;-73.238;2024-01-30T07:58:43;101957.89;;;21.96;44.05
83625;BME280;73589;41.158;-73.238;2024-01-30T08:01:15;101959.65;;;22.16;43.69
83625;BME280;73589;41.158;-73.238;2024-01-30T08:03:43;101962.95;;;22.20;43.77
83625;BME280;73589;41.158;-73.238;2024-01-30T08:06:13;101969.27;;;22.23;43.78
83625;BME280;73589;41.158;-73.238;2024-01-30T08:08:43;101973.31;;;22.24;43.89
83625;BME280;73589;41.158;-73.238;2024-01-30T08:11:14;101970.18;;;21.94;44.47
83625;BME280;73589;41.158;-73.238;2024-01-30T08:13:46;101978.42;;;21.88;44.33
83625;BME280;73589;41.158;-73.238;2024-01-30T08:16:15;101980.36;;;21.55;44.72
83625;BME280;73589;41.158;-73.238;2024-01-30T08:18:47;101983.20;;;22.20;43.51
83625;BME280;73589;41.158;-73.238;2024-01-30T08:21:16;101977.69;;;22.31;43.42
83625;BME280;73589;41.158;-73.238;2024-01-30T08:23:47;101974.76;;;22.31;43.53
83625;BME280;73589;41.158;-73.238;2024-01-30T08:26:17;101979.93;;;22.28;43.64
83625;BME280;73589;41.158;-73.238;2024-01-30T08:28:47;101987.72;;;22.27;43.80
83625;BME280;73589;41.158;-73.238;2024-01-30T08:31:17;101982.03;;;21.77;44.59
83625;BME280;73589;41.158;-73.238;2024-01-30T08:33:47;101979.95;;;21.62;44.62
83625;BME280;73589;41.158;-73.238;2024-01-30T08:36:17;101994.75;;;22.10;43.62
83625;BME280;73589;41.158;-73.238;2024-01-30T08:38:46;101995.75;;;22.29;43.28
83625;BME280;73589;41.158;-73.238;2024-01-30T08:41:16;101994.83;;;22.25;43.49
83625;BME280;73589;41.158;-73.238;2024-01-30T08:43:47;101998.78;;;22.25;43.58
83625;BME280;73589;41.158;-73.238;2024-01-30T08:46:18;101996.95;;;22.26;43.78
83625;BME280;73589;41.158;-73.238;2024-01-30T08:48:49;101990.96;;;22.13;43.97
83625;BME280;73589;41.158;-73.238;2024-01-30T08:51:18;101991.92;;;21.66;44.41
83625;BME280;73589;41.158;-73.238;2024-01-30T08:53:50;101992.79;;;21.69;44.24
83625;BME280;73589;41.158;-73.238;2024-01-30T08:56:20;101992.69;;;22.04;43.33
83625;BME280;73589;41.158;-73.238;2024-01-30T08:58:51;101996.68;;;22.09;43.11
83625;BME280;73589;41.158;-73.238;2024-01-30T09:01:21;101997.56;;;22.17;43.34
83625;BME280;73589;41.158;-73.238;2024-01-30T09:03:51;102001.48;;;22.20;43.47
83625;BME280;73589;41.158;-73.238;2024-01-30T09:06:21;102008.09;;;22.21;43.55
83625;BME280;73589;41.158;-73.238;2024-01-30T09:08:51;102004.31;;;22.11;43.72
83625;BME280;73589;41.158;-73.238;2024-01-30T09:11:22;102005.69;;;21.55;44.27
83625;BME280;73589;41.158;-73.238;2024-01-30T09:13:52;102016.21;;;22.05;43.34
83625;BME280;73589;41.158;-73.238;2024-01-30T09:16:24;102019.46;;;22.16;43.37
83625;BME280;73589;41.158;-73.238;2024-01-30T09:18:53;102022.44;;;22.16;43.45
83625;BME280;73589;41.158;-73.238;2024-01-30T09:21:24;102027.70;;;22.17;43.60
83625;BME280;73589;41.158;-73.238;2024-01-30T09:24:00;102027.98;;;22.17;43.64
83625;BME280;73589;41.158;-73.238;2024-01-30T09:26:24;102033.99;;;21.70;44.17
83625;BME280;73589;41.158;-73.238;2024-01-30T09:28:54;102039.38;;;21.59;44.09
83625;BME280;73589;41.158;-73.238;2024-01-30T09:31:25;102038.57;;;22.06;43.32
83625;BME280;73589;41.158;-73.238;2024-01-30T09:33:55;102041.01;;;22.12;43.22
83625;BME280;73589;41.158;-73.238;2024-01-30T09:36:25;102049.45;;;22.15;43.22
83625;BME280;73589;41.158;-73.238;2024-01-30T09:38:57;102053.41;;;22.14;43.28
83625;BME280;73589;41.158;-73.238;2024-01-30T09:41:28;102058.77;;;22.15;43.37
83625;BME280;73589;41.158;-73.238;2024-01-30T09:43:57;102059.34;;;22.17;43.40
83625;BME280;73589;41.158;-73.238;2024-01-30T09:46:27;102067.06;;;21.60;44.17
83625;BME280;73589;41.158;-73.238;2024-01-30T09:48:58;102070.44;;;21.87;43.61
83625;BME280;73589;41.158;-73.238;2024-01-30T09:51:28;102074.49;;;22.16;43.02
83625;BME280;73589;41.158;-73.238;2024-01-30T09:53:58;102073.45;;;22.22;42.94
83625;BME280;73589;41.158;-73.238;2024-01-30T09:56:28;102075.41;;;22.22;43.12
83625;BME280;73589;41.158;-73.238;2024-01-30T09:58:58;102074.80;;;22.26;43.08
83625;BME280;73589;41.158;-73.238;2024-01-30T10:01:28;102074.95;;;22.29;43.27
83625;BME280;73589;41.158;-73.238;2024-01-30T10:04:00;102071.32;;;22.13;43.46
83625;BME280;73589;41.158;-73.238;2024-01-30T10:06:30;102072.58;;;21.42;44.40
83625;BME280;73589;41.158;-73.238;2024-01-30T10:09:00;102069.68;;;21.82;43.54
83625;BME280;73589;41.158;-73.238;2024-01-30T10:11:31;102073.74;;;22.13;42.80
83625;BME280;73589;41.158;-73.238;2024-01-30T10:14:01;102083.92;;;22.10;42.76
83625;BME280;73589;41.158;-73.238;2024-01-30T10:16:31;102084.93;;;22.21;42.78
83625;BME280;73589;41.158;-73.238;2024-01-30T10:19:01;102081.26;;;22.20;42.99
83625;BME280;73589;41.158;-73.238;2024-01-30T10:21:32;102082.62;;;22.19;43.12
83625;BME280;73589;41.158;-73.238;2024-01-30T10:24:02;102084.04;;;22.19;43.24
83625;BME280;73589;41.158;-73.238;2024-01-30T10:26:33;102080.06;;;22.20;43.34
83625;BME280;73589;41.158;-73.238;2024-01-30T10:29:03;102085.51;;;22.17;43.58
83625;BME280;73589;41.158;-73.238;2024-01-30T10:31:33;102091.05;;;22.17;43.62
83625;BME280;73589;41.158;-73.238;2024-01-30T10:34:04;102088.39;;;22.22;43.60
83625;BME280;73589;41.158;-73.238;2024-01-30T10:36:38;102089.55;;;22.22;43.77
83625;BME280;73589;41.158;-73.238;2024-01-30T10:39:05;102092.06;;;22.20;43.91
83625;BME280;73589;41.158;-73.238;2024-01-30T10:41:40;102095.61;;;22.17;43.99
83625;BME280;73589;41.158;-73.238;2024-01-30T10:44:09;102098.62;;;22.15;44.08
83625;BME280;73589;41.158;-73.238;2024-01-30T10:46:38;102103.81;;;22.13;44.07
83625;BME280;73589;41.158;-73.238;2024-01-30T10:49:08;102110.06;;;22.11;44.14
83625;BME280;73589;41.158;-73.238;2024-01-30T10:51:37;102108.87;;;22.11;44.18
83625;BME280;73589;41.158;-73.238;2024-01-30T10:54:08;102112.94;;;22.07;44.08
83625;BME280;73589;41.158;-73.238;2024-01-30T10:56:38;102120.46;;;22.15;43.89
83625;BME280;73589;41.158;-73.238;2024-01-30T10:59:09;102124.27;;;22.15;44.02
83625;BME280;73589;41.158;-73.238;2024-01-30T11:01:39;102127.03;;;22.11;44.15
83625;BME280;73589;41.158;-73.238;2024-01-30T11:04:09;102134.20;;;22.15;44.38
83625;BME280;73589;41.158;-73.238;2024-01-30T11:06:42;102138.03;;;22.16;44.58
83625;BME280;73589;41.158;-73.238;2024-01-30T11:09:11;102141.83;;;22.12;44.75
83625;BME280;73589;41.158;-73.238;2024-01-30T11:11:49;102149.35;;;22.09;44.96
83625;BME280;73589;41.158;-73.238;2024-01-30T11:14:11;102149.91;;;22.14;44.96
83625;BME280;73589;41.158;-73.238;2024-01-30T11:16:43;102153.60;;;22.12;45.15
83625;BME280;73589;41.158;-73.238;2024-01-30T11:19:12;102160.59;;;22.11;45.18
83625;BME280;73589;41.158;-73.238;2024-01-30T11:21:43;102165.76;;;22.10;45.24
83625;BME280;73589;41.158;-73.238;2024-01-30T11:24:14;102166.56;;;22.11;45.28
83625;BME280;73589;41.158;-73.238;2024-01-30T11:26:43;102167.22;;;22.12;45.27
83625;BME280;73589;41.158;-73.238;2024-01-30T11:29:14;102170.41;;;22.13;45.36
83625;BME280;73589;41.158;-73.238;2024-01-30T11:31:52;102175.63;;;22.11;45.46
83625;BME280;73589;41.158;-73.238;2024-01-30T11:34:15;102176.15;;;22.09;45.57
83625;BME280;73589;41.158;-73.238;2024-01-30T11:36:45;102180.13;;;22.12;45.61
83625;BME280;73589;41.158;-73.238;2024-01-30T11:39:17;102182.34;;;22.08;45.70
83625;BME280;73589;41.158;-73.238;2024-01-30T11:41:46;102187.98;;;22.09;45.63
83625;BME280;73589;41.158;-73.238;2024-01-30T11:44:16;102196.03;;;22.07;45.73
83625;BME280;73589;41.158;-73.238;2024-01-30T11:46:46;102195.85;;;21.91;46.00
83625;BME280;73589;41.158;-73.238;2024-01-30T11:49:18;102201.00;;;21.80;46.05
83625;BME280;73589;41.158;-73.238;2024-01-30T11:51:46;102201.43;;;21.66;45.70
83625;BME280;73589;41.158;-73.238;2024-01-30T11:54:17;102205.24;;;21.49;45.18
83625;BME280;73589;41.158;-73.238;2024-01-30T11:56:49;102213.74;;;21.08;45.51
83625;BME280;73589;41.158;-73.238;2024-01-30T11:59:18;102217.30;;;21.34;44.79
83625;BME280;73589;41.158;-73.238;2024-01-30T12:01:52;102214.75;;;20.76;45.51
83625;BME280;73589;41.158;-73.238;2024-01-30T12:04:19;102215.26;;;21.72;43.50
83625;BME280;73589;41.158;-73.238;2024-01-30T12:06:52;102215.48;;;21.89;43.13
83625;BME280;73589;41.158;-73.238;2024-01-30T12:09:21;102222.43;;;21.92;43.53
83625;BME280;73589;41.158;-73.238;2024-01-30T12:11:50;102228.32;;;22.00;43.64
83625;BME280;73589;41.158;-73.238;2024-01-30T12:14:22;102227.52;;;22.15;43.50
83625;BME280;73589;41.158;-73.238;2024-01-30T12:16:52;102222.57;;;22.32;43.41
83625;BME280;73589;41.158;-73.238;2024-01-30T12:19:23;102219.52;;;21.97;43.81
83625;BME280;73589;41.158;-73.238;2024-01-30T12:21:56;102221.89;;;21.88;44.01
83625;BME280;73589;41.158;-73.238;2024-01-30T12:24:25;102225.34;;;22.06;43.39
83625;BME280;73589;41.158;-73.238;2024-01-30T12:26:57;102230.14;;;22.41;43.24
83625;BME280;73589;41.158;-73.238;2024-01-30T12:29:25;102236.00;;;22.46;43.07
83625;BME280;73589;41.158;-73.238;2024-01-30T12:31:55;102235.22;;;22.40;43.16
83625;BME280;73589;41.158;-73.238;2024-01-30T12:34:26;102230.15;;;21.94;43.81
83625;BME280;73589;41.158;-73.238;2024-01-30T12:36:56;102228.78;;;21.78;43.72
83625;BME280;73589;41.158;-73.238;2024-01-30T12:39:27;102229.78;;;22.19;42.71
83625;BME280;73589;41.158;-73.238;2024-01-30T12:41:58;102227.96;;;22.17;42.82
83625;BME280;73589;41.158;-73.238;2024-01-30T12:44:27;102223.33;;;22.12;42.97
83625;BME280;73589;41.158;-73.238;2024-01-30T12:47:02;102225.68;;;22.10;42.73